Crown Of Scandinavia — OXRA6 — position and weather

sailwx.info

Track history (hours):
 
Tides and Currents Weather Stations Pressure Air Temp Water Temp Dewpoint Dewpoint Depression Visibility Wind Speed Wind Dir Waves Ship Positions

Crown Of Scandinavia

Last reported at 2017-Jun-23 17:00 UTC. Time now 2017-Jun-23 17:24 UTC.
Position N 56°17' E 012°24'.

Length 171 m; draft 6.3 m.

Type: Ship. MMSI: 219592000.

Date/timePositionNaut miles runAvg speedWind from/ knotsBaromVisibWave heightAir tempDewpointWater temp
2017-Jun-23 17:00N 56°17' E 012°24'714.9
2017-Jun-23 16:31N 56°10' E 012°30'816.6
2017-Jun-23 16:01N 56°04' E 012°39'816.7
2017-Jun-23 15:31N 55°56' E 012°44'816.0
2017-Jun-23 15:00N 55°48' E 012°43'7 6.6
2017-Jun-23 14:00N 55°42' E 012°36'0 0.0
2017-Jun-23 13:31N 55°42' E 012°36'0 0.0
2017-Jun-23 13:00N 55°42' E 012°36'0 0.0
2017-Jun-23 12:31N 55°42' E 012°36'0 0.0
2017-Jun-23 12:00N 55°42' E 012°36'0 0.0
2017-Jun-23 11:30N 55°42' E 012°36'0 0.0
2017-Jun-23 11:00N 55°42' E 012°36'0 0.0
2017-Jun-23 10:31N 55°42' E 012°36'0 0.0
2017-Jun-23 10:00N 55°42' E 012°36'0 0.0
2017-Jun-23 09:30N 55°42' E 012°36'0 0.0
2017-Jun-23 09:00N 55°42' E 012°36'0 0.0
2017-Jun-23 08:30N 55°42' E 012°36'0 0.0
2017-Jun-23 08:00N 55°42' E 012°36'0 0.6
2017-Jun-23 07:31N 55°42' E 012°36'510.2
2017-Jun-23 07:00N 55°47' E 012°41'714.9
2017-Jun-23 06:30N 55°54' E 012°39'815.6
2017-Jun-23 06:00N 56°02' E 012°39'815.1
2017-Jun-23 05:30N 56°08' E 012°31'816.3
2017-Jun-23 05:00N 56°15' E 012°26'816.2
2017-Jun-23 04:30N 56°23' E 012°20'816.5
2017-Jun-23 04:00N 56°31' E 012°16'916.7
2017-Jun-23 03:28N 56°40' E 012°12'3016.9
2017-Jun-23 01:40N 57°09' E 011°56'316.6
2017-Jun-23 01:30N 57°11' E 011°54'816.9
2017-Jun-23 01:00N 57°19' E 011°47'816.6
2017-Jun-23 00:30N 57°26' E 011°40'816.8
2017-Jun-23 00:00N 57°34' E 011°34'816.9
2017-Jun-22 23:30N 57°42' E 011°28'817.0
2017-Jun-22 23:00N 57°50' E 011°22'917.0
2017-Jun-22 22:30N 57°58' E 011°16'916.4
2017-Jun-22 21:57N 58°06' E 011°10'916.0
2017-Jun-22 21:23N 58°14' E 011°03'615.8
2017-Jun-22 21:00N 58°20' E 010°58'815.3
2017-Jun-22 20:30N 58°27' E 010°53'815.6
2017-Jun-22 20:00N 58°34' E 010°49'816.0
2017-Jun-22 19:30N 58°42' E 010°45'816.3
2017-Jun-22 19:00N 58°50' E 010°43'816.6
2017-Jun-22 18:30N 58°58' E 010°41'816.6
2017-Jun-22 18:00N 59°07' E 010°39'816.2
2017-Jun-22 17:30N 59°15' E 010°37'816.4
2017-Jun-22 17:00N 59°23' E 010°34'816.3
2017-Jun-22 16:30N 59°31' E 010°35'713.1
2017-Jun-22 16:00N 59°37' E 010°38'714.4
2017-Jun-22 15:30N 59°44' E 010°33'815.9
2017-Jun-22 15:00N 59°52' E 010°38'4 8.4
2017-Jun-22 14:30N 59°54' E 010°45'0 0.0
2017-Jun-22 13:28N 59°54' E 010°45'0 0.0
2017-Jun-22 12:58N 59°54' E 010°45'0 0.0
2017-Jun-22 12:28N 59°54' E 010°45'0 0.0
2017-Jun-22 11:58N 59°54' E 010°45'0 0.0
2017-Jun-22 11:28N 59°54' E 010°45'0 0.0
2017-Jun-22 10:58N 59°54' E 010°45'0 0.0
2017-Jun-22 10:28N 59°54' E 010°45'0 0.0
2017-Jun-22 09:58N 59°54' E 010°45'0 0.0
2017-Jun-22 09:28N 59°54' E 010°45'0 0.0
2017-Jun-22 08:58N 59°54' E 010°45'0 0.0
2017-Jun-22 08:28N 59°54' E 010°45'0 0.0
2017-Jun-22 08:00N 59°54' E 010°45'3 5.9
2017-Jun-22 07:30N 59°53' E 010°40'815.7
2017-Jun-22 07:00N 59°45' E 010°34'612.3
2017-Jun-22 06:30N 59°39' E 010°37'611.3
2017-Jun-22 06:00N 59°34' E 010°38'815.8
2017-Jun-22 05:31N 59°26' E 010°34'816.6
2017-Jun-22 05:00N 59°18' E 010°36'816.7
2017-Jun-22 04:30N 59°10' E 010°39'816.4
2017-Jun-22 04:00N 59°02' E 010°40'816.2
2017-Jun-22 03:30N 58°54' E 010°43'816.4
2017-Jun-22 03:00N 58°46' E 010°46'816.9
2017-Jun-22 02:30N 58°37' E 010°48'917.1
2017-Jun-22 02:00N 58°29' E 010°52'917.4
2017-Jun-22 01:30N 58°21' E 010°57'917.3
2017-Jun-22 01:00N 58°12' E 011°02'816.9
2017-Jun-22 00:30N 58°04' E 011°06'816.5
2017-Jun-22 00:00N 57°56' E 011°11'816.2
2017-Jun-21 23:30N 57°49' E 011°16'816.2
2017-Jun-21 23:00N 57°41' E 011°21'816.2
2017-Jun-21 22:30N 57°33' E 011°26'816.1
2017-Jun-21 22:00N 57°26' E 011°30'815.9
2017-Jun-21 21:30N 57°18' E 011°35'815.9
2017-Jun-21 20:59N 57°10' E 011°39'815.7
2017-Jun-21 20:29N 57°03' E 011°43'2715.6
2017-Jun-21 18:47N 56°39' E 012°06'515.5
2017-Jun-21 18:27N 56°35' E 012°10'815.6
2017-Jun-21 17:57N 56°28' E 012°17'715.8
2017-Jun-21 17:30N 56°21' E 012°21'816.0
2017-Jun-21 17:00N 56°14' E 012°27'815.7
2017-Jun-21 16:30N 56°07' E 012°34'815.7
2017-Jun-21 16:00N 56°00' E 012°41'815.4
2017-Jun-21 15:30N 55°53' E 012°45'815.1
2017-Jun-21 15:00N 55°45' E 012°41'4 4.3
2017-Jun-21 14:00N 55°42' E 012°36'0 0.0
2017-Jun-21 13:30N 55°42' E 012°36'0 0.0
2017-Jun-21 13:00N 55°42' E 012°36'0 0.0
2017-Jun-21 12:30N 55°42' E 012°36'0 0.0
2017-Jun-21 12:00N 55°42' E 012°36'0 0.0
2017-Jun-21 11:30N 55°42' E 012°36'0 0.0
2017-Jun-21 11:00N 55°42' E 012°36'0 0.0
2017-Jun-21 10:30N 55°42' E 012°36'0 0.0
2017-Jun-21 10:00N 55°42' E 012°36'0 0.0
2017-Jun-21 09:30N 55°42' E 012°36'0 0.0
2017-Jun-21 09:00N 55°42' E 012°36'0 0.0
2017-Jun-21 08:30N 55°42' E 012°36'0 0.0
2017-Jun-21 08:00N 55°42' E 012°36'1 1.1
2017-Jun-21 07:30N 55°42' E 012°37'713.1
2017-Jun-21 07:00N 55°48' E 012°42'816.0
2017-Jun-21 06:31N 55°56' E 012°39'816.0
2017-Jun-21 06:01N 56°04' E 012°37'816.8
2017-Jun-21 05:30N 56°10' E 012°27'816.3
2017-Jun-21 05:00N 56°18' E 012°23'816.4
2017-Jun-21 04:30N 56°26' E 012°19'816.6
2017-Jun-21 04:00N 56°34' E 012°15'4517.1
2017-Jun-21 01:23N 57°17' E 011°50'717.4
2017-Jun-21 01:00N 57°22' E 011°44'917.4
2017-Jun-21 00:31N 57°30' E 011°37'917.5
2017-Jun-21 00:00N 57°38' E 011°31'917.4
2017-Jun-20 23:30N 57°46' E 011°24'916.8
2017-Jun-20 22:59N 57°55' E 011°19'916.4
2017-Jun-20 22:27N 58°03' E 011°13'816.0
2017-Jun-20 21:56N 58°11' E 011°07'615.3
2017-Jun-20 21:30N 58°17' E 011°03'715.1
2017-Jun-20 21:01N 58°24' E 010°58'714.7
2017-Jun-20 20:30N 58°31' E 010°53'714.9
2017-Jun-20 20:00N 58°38' E 010°50'815.6
2017-Jun-20 19:30N 58°46' E 010°47'815.9
2017-Jun-20 19:01N 58°53' E 010°43'816.0
2017-Jun-20 18:30N 59°01' E 010°41'816.5
2017-Jun-20 18:01N 59°09' E 010°38'917.0
2017-Jun-20 17:31N 59°18' E 010°36'817.0
2017-Jun-20 17:01N 59°26' E 010°33'816.3
2017-Jun-20 16:31N 59°34' E 010°38'713.7
2017-Jun-20 16:01N 59°41' E 010°37'815.4
2017-Jun-20 15:30N 59°48' E 010°35'714.5
2017-Jun-20 15:00N 59°54' E 010°44'0 0.5
2017-Jun-20 13:58N 59°54' E 010°45'0 0.0
2017-Jun-20 13:28N 59°54' E 010°45'0 0.0
2017-Jun-20 12:58N 59°54' E 010°45'0 0.0
2017-Jun-20 12:28N 59°54' E 010°45'0 0.0
2017-Jun-20 11:58N 59°54' E 010°45'0 0.0
2017-Jun-20 11:25N 59°54' E 010°45'0 0.0
2017-Jun-20 10:58N 59°54' E 010°45'0 0.0
2017-Jun-20 10:28N 59°54' E 010°45'0 0.0
2017-Jun-20 09:58N 59°54' E 010°45'0 0.0
2017-Jun-20 09:28N 59°54' E 010°45'0 0.0
2017-Jun-20 08:58N 59°54' E 010°45'0 0.0
2017-Jun-20 08:28N 59°54' E 010°45'0 0.0
2017-Jun-20 08:00N 59°54' E 010°45'2 4.5
2017-Jun-20 07:30N 59°53' E 010°40'815.9
2017-Jun-20 07:01N 59°46' E 010°34'713.7
2017-Jun-20 06:30N 59°39' E 010°37'713.2
2017-Jun-20 06:01N 59°33' E 010°37'816.0
2017-Jun-20 05:30N 59°25' E 010°34'816.0
2017-Jun-20 05:00N 59°17' E 010°37'816.1
2017-Jun-20 04:31N 59°09' E 010°39'816.1
2017-Jun-20 04:01N 59°01' E 010°41'816.5
2017-Jun-20 03:31N 58°53' E 010°43'816.2
2017-Jun-20 03:01N 58°45' E 010°45'816.0
2017-Jun-20 02:30N 58°37' E 010°48'816.6
2017-Jun-20 02:00N 58°29' E 010°53'816.5
2017-Jun-20 01:30N 58°22' E 010°59'816.3
2017-Jun-20 01:00N 58°14' E 011°05'915.7
2017-Jun-20 00:27N 58°06' E 011°10'715.8
2017-Jun-20 00:00N 57°59' E 011°15'815.6
2017-Jun-19 23:31N 57°52' E 011°20'815.5
2017-Jun-19 23:01N 57°45' E 011°25'816.5
2017-Jun-19 22:30N 57°37' E 011°28'815.6
2017-Jun-19 22:01N 57°29' E 011°34'815.6
2017-Jun-19 21:30N 57°23' E 011°41'816.2
2017-Jun-19 21:01N 57°16' E 011°50'1016.5
2017-Jun-19 20:23N 57°06' E 011°57'916.1
2017-Jun-19 19:50N 56°58' E 012°02'616.2
2017-Jun-19 19:29N 56°53' E 012°06'1116.4
2017-Jun-19 18:50N 56°42' E 012°10'516.1
2017-Jun-19 18:30N 56°37' E 012°12'915.8
2017-Jun-19 17:55N 56°28' E 012°17'716.0
2017-Jun-19 17:31N 56°22' E 012°21'816.2
2017-Jun-19 17:01N 56°15' E 012°27'816.0
2017-Jun-19 16:31N 56°07' E 012°33'816.3
2017-Jun-19 16:00N 56°00' E 012°41'815.9
2017-Jun-19 15:30N 55°53' E 012°44'815.3
2017-Jun-19 15:00N 55°45' E 012°41'4 4.2
2017-Jun-19 13:58N 55°42' E 012°36'0 0.0
2017-Jun-19 13:28N 55°42' E 012°36'0 0.0
2017-Jun-19 12:58N 55°42' E 012°36'0 0.0
2017-Jun-19 12:28N 55°42' E 012°36'0 0.0
2017-Jun-19 11:58N 55°42' E 012°36'0 0.0
2017-Jun-19 11:28N 55°42' E 012°36'0 0.0
2017-Jun-19 10:58N 55°42' E 012°36'0 0.0
2017-Jun-19 10:22N 55°42' E 012°36'0 0.0
2017-Jun-19 09:58N 55°42' E 012°36'0 0.0
2017-Jun-19 09:28N 55°42' E 012°36'0 0.0
2017-Jun-19 08:58N 55°42' E 012°36'0 0.0
2017-Jun-19 08:28N 55°42' E 012°36'0 0.0
2017-Jun-19 08:00N 55°42' E 012°36'1 1.7
2017-Jun-19 07:30N 55°43' E 012°37'713.9
2017-Jun-19 07:00N 55°49' E 012°42'815.5
2017-Jun-19 06:30N 55°57' E 012°40'815.2
2017-Jun-19 06:00N 56°04' E 012°37'815.6
2017-Jun-19 05:30N 56°10' E 012°29'815.8
2017-Jun-19 05:00N 56°18' E 012°24'815.8
2017-Jun-19 04:30N 56°25' E 012°19'816.2
2017-Jun-19 04:00N 56°33' E 012°15'816.4
2017-Jun-19 03:30N 56°41' E 012°10'916.6
2017-Jun-19 02:58N 56°49' E 012°05'816.4
2017-Jun-19 02:30N 56°57' E 012°02'1817.0
2017-Jun-19 01:28N 57°13' E 011°52'817.1
2017-Jun-19 01:00N 57°20' E 011°45'917.2
2017-Jun-19 00:30N 57°27' E 011°36'817.0
2017-Jun-19 00:00N 57°33' E 011°24'917.4
2017-Jun-18 23:30N 57°39' E 011°14'917.4
2017-Jun-18 23:00N 57°48' E 011°09'816.7
2017-Jun-18 22:30N 57°56' E 011°04'816.0
2017-Jun-18 22:00N 58°03' E 010°57'816.1
2017-Jun-18 21:30N 58°10' E 010°52'816.2
2017-Jun-18 21:00N 58°18' E 010°46'816.1
2017-Jun-18 20:30N 58°26' E 010°41'815.8
2017-Jun-18 20:00N 58°33' E 010°37'815.6
2017-Jun-18 19:30N 58°41' E 010°36'815.8
2017-Jun-18 19:00N 58°49' E 010°35'815.5
2017-Jun-18 18:30N 58°57' E 010°35'815.5
2017-Jun-18 18:00N 59°04' E 010°37'815.6
2017-Jun-18 17:30N 59°12' E 010°38'816.3
2017-Jun-18 17:00N 59°20' E 010°35'816.3
2017-Jun-18 16:30N 59°28' E 010°34'714.7
2017-Jun-18 16:01N 59°35' E 010°38'714.2
2017-Jun-18 15:30N 59°42' E 010°35'714.7
2017-Jun-18 15:00N 59°50' E 010°36'6 6.3
2017-Jun-18 13:59N 59°54' E 010°45'0 0.0
2017-Jun-18 13:29N 59°54' E 010°45'0 0.0
2017-Jun-18 12:59N 59°54' E 010°45'0 0.0
2017-Jun-18 12:29N 59°54' E 010°45'0 0.0
2017-Jun-18 11:59N 59°54' E 010°45'0 0.0
2017-Jun-18 11:29N 59°54' E 010°45'0 0.0
2017-Jun-18 10:59N 59°54' E 010°45'0 0.0
2017-Jun-18 10:29N 59°54' E 010°45'0 0.0
2017-Jun-18 09:59N 59°54' E 010°45'0 0.0
2017-Jun-18 09:29N 59°54' E 010°45'0 0.0
2017-Jun-18 08:59N 59°54' E 010°45'0 0.0
2017-Jun-18 08:29N 59°54' E 010°45'0 0.0
2017-Jun-18 07:58N 59°54' E 010°45'1 2.6
2017-Jun-18 07:30N 59°54' E 010°42'815.3
2017-Jun-18 07:00N 59°47' E 010°35'713.7
2017-Jun-18 06:31N 59°41' E 010°37'714.3
2017-Jun-18 06:00N 59°34' E 010°37'816.2
2017-Jun-18 05:30N 59°26' E 010°34'816.6
2017-Jun-18 05:00N 59°18' E 010°37'816.7
2017-Jun-18 04:30N 59°09' E 010°39'816.6
2017-Jun-18 04:00N 59°01' E 010°37'816.7
2017-Jun-18 03:30N 58°53' E 010°35'917.1
2017-Jun-18 03:00N 58°44' E 010°36'917.5
2017-Jun-18 02:30N 58°35' E 010°37'917.1
2017-Jun-18 02:00N 58°27' E 010°42'817.0
2017-Jun-18 01:30N 58°19' E 010°48'816.7
2017-Jun-18 01:00N 58°11' E 010°52'816.9
2017-Jun-18 00:30N 58°03' E 010°56'916.6
2017-Jun-17 23:59N 57°55' E 011°02'715.8
2017-Jun-17 23:30N 57°48' E 011°08'815.4
2017-Jun-17 23:00N 57°41' E 011°13'816.0
2017-Jun-17 22:30N 57°34' E 011°20'816.1
2017-Jun-17 22:00N 57°27' E 011°27'816.3
2017-Jun-17 21:30N 57°19' E 011°33'916.1
2017-Jun-17 20:58N 57°11' E 011°38'916.7
2017-Jun-17 20:27N 57°03' E 011°44'916.3
2017-Jun-17 19:53N 56°55' E 011°52'616.0
2017-Jun-17 19:29N 56°49' E 011°58'816.3
2017-Jun-17 19:01N 56°42' E 012°03'816.0
2017-Jun-17 18:30N 56°35' E 012°09'816.1
2017-Jun-17 18:00N 56°28' E 012°15'816.3
2017-Jun-17 17:30N 56°20' E 012°21'816.4
2017-Jun-17 17:00N 56°13' E 012°28'816.3
2017-Jun-17 16:30N 56°06' E 012°35'714.6
2017-Jun-17 16:00N 55°59' E 012°41'815.6
2017-Jun-17 15:30N 55°52' E 012°45'714.5
2017-Jun-17 15:00N 55°45' E 012°41'4 3.8
2017-Jun-17 14:00N 55°42' E 012°36'0 0.0
2017-Jun-17 13:30N 55°42' E 012°36'0 0.0
2017-Jun-17 13:00N 55°42' E 012°36'0 0.0
2017-Jun-17 12:30N 55°42' E 012°36'0 0.0
2017-Jun-17 12:00N 55°42' E 012°36'0 0.0
2017-Jun-17 11:30N 55°42' E 012°36'0 0.0
2017-Jun-17 11:00N 55°42' E 012°36'0 0.0
2017-Jun-17 10:30N 55°42' E 012°36'0 0.0
2017-Jun-17 10:00N 55°42' E 012°36'0 0.0
2017-Jun-17 09:30N 55°42' E 012°36'0 0.0
2017-Jun-17 09:00N 55°42' E 012°36'0 0.0
2017-Jun-17 08:30N 55°42' E 012°36'0 0.0
2017-Jun-17 08:00N 55°42' E 012°36'1 1.3
2017-Jun-17 07:30N 55°43' E 012°37'613.0
2017-Jun-17 07:00N 55°48' E 012°42'815.8
2017-Jun-17 06:30N 55°56' E 012°39'815.9
2017-Jun-17 06:00N 56°04' E 012°38'816.6
2017-Jun-17 05:30N 56°10' E 012°28'816.6
2017-Jun-17 05:00N 56°18' E 012°23'916.6
2017-Jun-17 04:28N 56°27' E 012°18'4917.5
2017-Jun-17 01:39N 57°14' E 011°51'318.2
2017-Jun-17 01:30N 57°16' E 011°49'917.5
2017-Jun-17 01:01N 57°24' E 011°42'816.7
2017-Jun-17 00:30N 57°31' E 011°35'816.5
2017-Jun-17 00:00N 57°39' E 011°29'816.4
2017-Jun-16 23:30N 57°47' E 011°23'816.6
2017-Jun-16 23:00N 57°54' E 011°17'816.6
2017-Jun-16 22:30N 58°02' E 011°11'815.6
2017-Jun-16 22:00N 58°09' E 011°06'815.7
2017-Jun-16 21:30N 58°17' E 011°02'815.2
2017-Jun-16 21:00N 58°24' E 010°57'815.0
2017-Jun-16 20:30N 58°31' E 010°51'714.9
2017-Jun-16 20:00N 58°38' E 010°46'715.0
2017-Jun-16 19:30N 58°45' E 010°45'815.5
2017-Jun-16 19:00N 58°53' E 010°43'816.0
2017-Jun-16 18:30N 59°01' E 010°41'816.1
2017-Jun-16 18:00N 59°09' E 010°39'816.0
2017-Jun-16 17:30N 59°17' E 010°36'816.1
2017-Jun-16 17:00N 59°25' E 010°34'815.9
2017-Jun-16 16:30N 59°32' E 010°36'713.2
2017-Jun-16 16:00N 59°39' E 010°37'714.2
2017-Jun-16 15:31N 59°46' E 010°33'815.8
2017-Jun-16 15:00N 59°53' E 010°40'3 5.0
2017-Jun-16 14:30N 59°54' E 010°45'0 0.0
2017-Jun-16 13:30N 59°54' E 010°45'0 0.0
2017-Jun-16 13:00N 59°54' E 010°45'0 0.0
2017-Jun-16 12:30N 59°54' E 010°45'0 0.0
2017-Jun-16 12:00N 59°54' E 010°45'0 0.0
2017-Jun-16 11:30N 59°54' E 010°45'0 0.0
2017-Jun-16 11:00N 59°54' E 010°45'0 0.0
2017-Jun-16 10:30N 59°54' E 010°45'0 0.0
2017-Jun-16 10:00N 59°54' E 010°45'0 0.0
2017-Jun-16 09:30N 59°54' E 010°45'0 0.0
2017-Jun-16 09:00N 59°54' E 010°45'0 0.0
2017-Jun-16 08:30N 59°54' E 010°45'0 0.0
2017-Jun-16 08:00N 59°54' E 010°45'1 1.2
2017-Jun-16 07:30N 59°54' E 010°44'714.7
2017-Jun-16 07:00N 59°48' E 010°35'714.5
2017-Jun-16 06:30N 59°41' E 010°36'713.8
2017-Jun-16 06:00N 59°34' E 010°38'815.6
2017-Jun-16 05:30N 59°27' E 010°34'815.7
2017-Jun-16 05:00N 59°19' E 010°36'816.0
2017-Jun-16 04:30N 59°11' E 010°39'815.8
2017-Jun-16 04:00N 59°03' E 010°41'816.0
2017-Jun-16 03:30N 58°55' E 010°43'816.2
2017-Jun-16 03:00N 58°47' E 010°46'816.8
2017-Jun-16 02:30N 58°39' E 010°49'917.2
2017-Jun-16 02:00N 58°31' E 010°54'917.3
2017-Jun-16 01:30N 58°23' E 011°00'917.3
2017-Jun-16 01:00N 58°14' E 011°05'917.1
2017-Jun-16 00:30N 58°06' E 011°10'816.6
2017-Jun-16 00:00N 57°59' E 011°15'815.6
2017-Jun-15 23:30N 57°51' E 011°21'816.1
2017-Jun-15 23:01N 57°44' E 011°26'816.7
2017-Jun-15 22:30N 57°36' E 011°32'816.6
2017-Jun-15 22:01N 57°29' E 011°39'816.0
2017-Jun-15 21:31N 57°21' E 011°45'815.3
2017-Jun-15 21:00N 57°14' E 011°51'2115.9
2017-Jun-15 19:42N 56°55' E 012°05'1515.9
2017-Jun-15 18:44N 56°41' E 012°14'415.9
2017-Jun-15 18:30N 56°37' E 012°16'815.8
2017-Jun-15 18:00N 56°29' E 012°19'815.9
2017-Jun-15 17:30N 56°22' E 012°23'816.0
2017-Jun-15 17:00N 56°14' E 012°27'815.8
2017-Jun-15 16:30N 56°07' E 012°33'815.7
2017-Jun-15 16:00N 56°01' E 012°41'815.6
2017-Jun-15 15:30N 55°53' E 012°45'815.4
2017-Jun-15 15:00N 55°46' E 012°41'4 8.8
2017-Jun-15 14:30N 55°42' E 012°36'0 0.0
2017-Jun-15 13:30N 55°42' E 012°36'0 0.0
2017-Jun-15 13:00N 55°42' E 012°36'0 0.0
2017-Jun-15 12:30N 55°42' E 012°36'0 0.0
2017-Jun-15 12:00N 55°42' E 012°36'0 0.0
2017-Jun-15 11:30N 55°42' E 012°36'0 0.0
2017-Jun-15 11:00N 55°42' E 012°36'0 0.0
2017-Jun-15 10:30N 55°42' E 012°36'0 0.0
2017-Jun-15 10:00N 55°42' E 012°36'0 0.0
2017-Jun-15 09:30N 55°42' E 012°36'0 0.0
2017-Jun-15 09:00N 55°42' E 012°36'0 0.0
2017-Jun-15 08:30N 55°42' E 012°36'0 0.0
2017-Jun-15 08:00N 55°42' E 012°36'0 0.8
2017-Jun-15 07:31N 55°42' E 012°36'611.5
2017-Jun-15 07:01N 55°47' E 012°42'815.1
2017-Jun-15 06:31N 55°55' E 012°39'816.0
2017-Jun-15 06:01N 56°03' E 012°39'816.1
2017-Jun-15 05:31N 56°08' E 012°29'816.1
2017-Jun-15 05:01N 56°16' E 012°25'1016.2
2017-Jun-15 04:25N 56°25' E 012°19'816.2
2017-Jun-15 03:54N 56°33' E 012°15'4217.0
2017-Jun-15 01:25N 57°14' E 011°52'718.1
2017-Jun-15 01:00N 57°20' E 011°45'917.3
2017-Jun-15 00:30N 57°27' E 011°37'917.2
2017-Jun-15 00:01N 57°35' E 011°31'917.6
2017-Jun-14 23:31N 57°43' E 011°25'918.2
2017-Jun-14 23:01N 57°52' E 011°19'917.6
2017-Jun-14 22:30N 58°00' E 011°13'816.5
2017-Jun-14 22:01N 58°08' E 011°08'816.2
2017-Jun-14 21:31N 58°16' E 011°03'815.7
2017-Jun-14 21:01N 58°23' E 010°58'815.7
2017-Jun-14 20:31N 58°31' E 010°54'815.2
2017-Jun-14 20:01N 58°38' E 010°49'714.9
2017-Jun-14 19:31N 58°45' E 010°44'815.7
2017-Jun-14 19:01N 58°53' E 010°43'816.1
2017-Jun-14 18:31N 59°01' E 010°41'816.5
2017-Jun-14 18:01N 59°09' E 010°39'816.7
2017-Jun-14 17:31N 59°17' E 010°36'816.5
2017-Jun-14 17:01N 59°25' E 010°33'815.9
2017-Jun-14 16:31N 59°33' E 010°37'713.6
2017-Jun-14 16:00N 59°40' E 010°37'612.7
2017-Jun-14 15:30N 59°46' E 010°33'815.6
2017-Jun-14 15:00N 59°53' E 010°39'3 6.0
2017-Jun-14 14:30N 59°54' E 010°45'0 0.0
2017-Jun-14 13:29N 59°54' E 010°45'0 0.0
2017-Jun-14 12:59N 59°54' E 010°45'0 0.0
2017-Jun-14 12:29N 59°54' E 010°45'0 0.0
2017-Jun-14 11:59N 59°54' E 010°45'0 0.0
2017-Jun-14 11:29N 59°54' E 010°45'0 0.0
2017-Jun-14 10:59N 59°54' E 010°45'0 0.0
2017-Jun-14 10:29N 59°54' E 010°45'0 0.0
2017-Jun-14 09:59N 59°54' E 010°45'0 0.0
2017-Jun-14 09:29N 59°54' E 010°45'0 0.0
2017-Jun-14 08:59N 59°54' E 010°45'0 0.0
2017-Jun-14 08:23N 59°54' E 010°45'0 0.0
2017-Jun-14 07:59N 59°54' E 010°45'0 0.5
2017-Jun-14 07:30N 59°54' E 010°45'613.1
2017-Jun-14 07:00N 59°49' E 010°35'815.1
2017-Jun-14 06:30N 59°42' E 010°36'713.8
2017-Jun-14 06:00N 59°35' E 010°39'815.6
2017-Jun-14 05:30N 59°28' E 010°34'816.1
2017-Jun-14 05:00N 59°20' E 010°36'816.2
2017-Jun-14 04:30N 59°12' E 010°39'816.1
2017-Jun-14 04:00N 59°04' E 010°41'816.7
2017-Jun-14 03:30N 58°55' E 010°43'816.7
2017-Jun-14 03:00N 58°47' E 010°44'917.4
2017-Jun-14 02:30N 58°39' E 010°47'918.7
2017-Jun-14 02:00N 58°30' E 010°53'1019.8
2017-Jun-14 01:30N 58°20' E 010°58'1019.1
2017-Jun-14 01:00N 58°11' E 011°03'918.9
2017-Jun-14 00:30N 58°02' E 011°09'918.1
2017-Jun-14 00:00N 57°53' E 011°14'816.4
2017-Jun-13 23:30N 57°45' E 011°18'815.1
2017-Jun-13 23:00N 57°38' E 011°22'815.3
2017-Jun-13 22:31N 57°31' E 011°27'815.7
2017-Jun-13 22:00N 57°23' E 011°31'815.8
2017-Jun-13 21:30N 57°16' E 011°36'915.6
2017-Jun-13 20:56N 57°08' E 011°41'815.9
2017-Jun-13 20:25N 56°60' E 011°47'815.4
2017-Jun-13 19:54N 56°53' E 011°54'3915.6
2017-Jun-13 17:24N 56°17' E 012°23'615.6
2017-Jun-13 17:00N 56°12' E 012°28'  
Track history (hours):
 
Tides and Currents Weather Stations Pressure Air Temp Water Temp Dewpoint Dewpoint Depression Visibility Wind Speed Wind Dir Waves Ship Positions

Crown Of Scandinavia

Last reported at 2017-Jun-23 17:00 UTC. Time now 2017-Jun-23 17:24 UTC.
Position N 56°17' E 012°24'.

Length 171 m; draft 6.3 m.

Type: Ship. MMSI: 219592000.

Date/timePositionNaut miles runAvg speedWind from/ knotsBaromVisibWave heightAir tempDewpointWater temp
2017-Jun-23 17:00N 56°17' E 012°24'714.9
2017-Jun-23 16:31N 56°10' E 012°30'816.6
2017-Jun-23 16:01N 56°04' E 012°39'816.7
2017-Jun-23 15:31N 55°56' E 012°44'816.0
2017-Jun-23 15:00N 55°48' E 012°43'7 6.6
2017-Jun-23 14:00N 55°42' E 012°36'0 0.0
2017-Jun-23 13:31N 55°42' E 012°36'0 0.0
2017-Jun-23 13:00N 55°42' E 012°36'0 0.0
2017-Jun-23 12:31N 55°42' E 012°36'0 0.0
2017-Jun-23 12:00N 55°42' E 012°36'0 0.0
2017-Jun-23 11:30N 55°42' E 012°36'0 0.0
2017-Jun-23 11:00N 55°42' E 012°36'0 0.0
2017-Jun-23 10:31N 55°42' E 012°36'0 0.0
2017-Jun-23 10:00N 55°42' E 012°36'0 0.0
2017-Jun-23 09:30N 55°42' E 012°36'0 0.0
2017-Jun-23 09:00N 55°42' E 012°36'0 0.0
2017-Jun-23 08:30N 55°42' E 012°36'0 0.0
2017-Jun-23 08:00N 55°42' E 012°36'0 0.6
2017-Jun-23 07:31N 55°42' E 012°36'510.2
2017-Jun-23 07:00N 55°47' E 012°41'714.9
2017-Jun-23 06:30N 55°54' E 012°39'815.6
2017-Jun-23 06:00N 56°02' E 012°39'815.1
2017-Jun-23 05:30N 56°08' E 012°31'816.3
2017-Jun-23 05:00N 56°15' E 012°26'816.2
2017-Jun-23 04:30N 56°23' E 012°20'816.5
2017-Jun-23 04:00N 56°31' E 012°16'916.7
2017-Jun-23 03:28N 56°40' E 012°12'3016.9
2017-Jun-23 01:40N 57°09' E 011°56'316.6
2017-Jun-23 01:30N 57°11' E 011°54'816.9
2017-Jun-23 01:00N 57°19' E 011°47'816.6
2017-Jun-23 00:30N 57°26' E 011°40'816.8
2017-Jun-23 00:00N 57°34' E 011°34'816.9
2017-Jun-22 23:30N 57°42' E 011°28'817.0
2017-Jun-22 23:00N 57°50' E 011°22'917.0
2017-Jun-22 22:30N 57°58' E 011°16'916.4
2017-Jun-22 21:57N 58°06' E 011°10'916.0
2017-Jun-22 21:23N 58°14' E 011°03'615.8
2017-Jun-22 21:00N 58°20' E 010°58'815.3
2017-Jun-22 20:30N 58°27' E 010°53'815.6
2017-Jun-22 20:00N 58°34' E 010°49'816.0
2017-Jun-22 19:30N 58°42' E 010°45'816.3
2017-Jun-22 19:00N 58°50' E 010°43'816.6
2017-Jun-22 18:30N 58°58' E 010°41'816.6
2017-Jun-22 18:00N 59°07' E 010°39'816.2
2017-Jun-22 17:30N 59°15' E 010°37'816.4
2017-Jun-22 17:00N 59°23' E 010°34'816.3
2017-Jun-22 16:30N 59°31' E 010°35'713.1
2017-Jun-22 16:00N 59°37' E 010°38'714.4
2017-Jun-22 15:30N 59°44' E 010°33'815.9
2017-Jun-22 15:00N 59°52' E 010°38'4 8.4
2017-Jun-22 14:30N 59°54' E 010°45'0 0.0
2017-Jun-22 13:28N 59°54' E 010°45'0 0.0
2017-Jun-22 12:58N 59°54' E 010°45'0 0.0
2017-Jun-22 12:28N 59°54' E 010°45'0 0.0
2017-Jun-22 11:58N 59°54' E 010°45'0 0.0
2017-Jun-22 11:28N 59°54' E 010°45'0 0.0
2017-Jun-22 10:58N 59°54' E 010°45'0 0.0
2017-Jun-22 10:28N 59°54' E 010°45'0 0.0
2017-Jun-22 09:58N 59°54' E 010°45'0 0.0
2017-Jun-22 09:28N 59°54' E 010°45'0 0.0
2017-Jun-22 08:58N 59°54' E 010°45'0 0.0
2017-Jun-22 08:28N 59°54' E 010°45'0 0.0
2017-Jun-22 08:00N 59°54' E 010°45'3 5.9
2017-Jun-22 07:30N 59°53' E 010°40'815.7
2017-Jun-22 07:00N 59°45' E 010°34'612.3
2017-Jun-22 06:30N 59°39' E 010°37'611.3
2017-Jun-22 06:00N 59°34' E 010°38'815.8
2017-Jun-22 05:31N 59°26' E 010°34'816.6
2017-Jun-22 05:00N 59°18' E 010°36'816.7
2017-Jun-22 04:30N 59°10' E 010°39'816.4
2017-Jun-22 04:00N 59°02' E 010°40'816.2
2017-Jun-22 03:30N 58°54' E 010°43'816.4
2017-Jun-22 03:00N 58°46' E 010°46'816.9
2017-Jun-22 02:30N 58°37' E 010°48'917.1
2017-Jun-22 02:00N 58°29' E 010°52'917.4
2017-Jun-22 01:30N 58°21' E 010°57'917.3
2017-Jun-22 01:00N 58°12' E 011°02'816.9
2017-Jun-22 00:30N 58°04' E 011°06'816.5
2017-Jun-22 00:00N 57°56' E 011°11'816.2
2017-Jun-21 23:30N 57°49' E 011°16'816.2
2017-Jun-21 23:00N 57°41' E 011°21'816.2
2017-Jun-21 22:30N 57°33' E 011°26'816.1
2017-Jun-21 22:00N 57°26' E 011°30'815.9
2017-Jun-21 21:30N 57°18' E 011°35'815.9
2017-Jun-21 20:59N 57°10' E 011°39'815.7
2017-Jun-21 20:29N 57°03' E 011°43'2715.6
2017-Jun-21 18:47N 56°39' E 012°06'515.5
2017-Jun-21 18:27N 56°35' E 012°10'815.6
2017-Jun-21 17:57N 56°28' E 012°17'715.8
2017-Jun-21 17:30N 56°21' E 012°21'816.0
2017-Jun-21 17:00N 56°14' E 012°27'815.7
2017-Jun-21 16:30N 56°07' E 012°34'815.7
2017-Jun-21 16:00N 56°00' E 012°41'815.4
2017-Jun-21 15:30N 55°53' E 012°45'815.1
2017-Jun-21 15:00N 55°45' E 012°41'4 4.3
2017-Jun-21 14:00N 55°42' E 012°36'0 0.0
2017-Jun-21 13:30N 55°42' E 012°36'0 0.0
2017-Jun-21 13:00N 55°42' E 012°36'0 0.0
2017-Jun-21 12:30N 55°42' E 012°36'0 0.0
2017-Jun-21 12:00N 55°42' E 012°36'0 0.0
2017-Jun-21 11:30N 55°42' E 012°36'0 0.0
2017-Jun-21 11:00N 55°42' E 012°36'0 0.0
2017-Jun-21 10:30N 55°42' E 012°36'0 0.0
2017-Jun-21 10:00N 55°42' E 012°36'0 0.0
2017-Jun-21 09:30N 55°42' E 012°36'0 0.0
2017-Jun-21 09:00N 55°42' E 012°36'0 0.0
2017-Jun-21 08:30N 55°42' E 012°36'0 0.0
2017-Jun-21 08:00N 55°42' E 012°36'1 1.1
2017-Jun-21 07:30N 55°42' E 012°37'713.1
2017-Jun-21 07:00N 55°48' E 012°42'816.0
2017-Jun-21 06:31N 55°56' E 012°39'816.0
2017-Jun-21 06:01N 56°04' E 012°37'816.8
2017-Jun-21 05:30N 56°10' E 012°27'816.3
2017-Jun-21 05:00N 56°18' E 012°23'816.4
2017-Jun-21 04:30N 56°26' E 012°19'816.6
2017-Jun-21 04:00N 56°34' E 012°15'4517.1
2017-Jun-21 01:23N 57°17' E 011°50'717.4
2017-Jun-21 01:00N 57°22' E 011°44'917.4
2017-Jun-21 00:31N 57°30' E 011°37'917.5
2017-Jun-21 00:00N 57°38' E 011°31'917.4
2017-Jun-20 23:30N 57°46' E 011°24'916.8
2017-Jun-20 22:59N 57°55' E 011°19'916.4
2017-Jun-20 22:27N 58°03' E 011°13'816.0
2017-Jun-20 21:56N 58°11' E 011°07'615.3
2017-Jun-20 21:30N 58°17' E 011°03'715.1
2017-Jun-20 21:01N 58°24' E 010°58'714.7
2017-Jun-20 20:30N 58°31' E 010°53'714.9
2017-Jun-20 20:00N 58°38' E 010°50'815.6
2017-Jun-20 19:30N 58°46' E 010°47'815.9
2017-Jun-20 19:01N 58°53' E 010°43'816.0
2017-Jun-20 18:30N 59°01' E 010°41'816.5
2017-Jun-20 18:01N 59°09' E 010°38'917.0
2017-Jun-20 17:31N 59°18' E 010°36'817.0
2017-Jun-20 17:01N 59°26' E 010°33'816.3
2017-Jun-20 16:31N 59°34' E 010°38'713.7
2017-Jun-20 16:01N 59°41' E 010°37'815.4
2017-Jun-20 15:30N 59°48' E 010°35'714.5
2017-Jun-20 15:00N 59°54' E 010°44'0 0.5
2017-Jun-20 13:58N 59°54' E 010°45'0 0.0
2017-Jun-20 13:28N 59°54' E 010°45'0 0.0
2017-Jun-20 12:58N 59°54' E 010°45'0 0.0
2017-Jun-20 12:28N 59°54' E 010°45'0 0.0
2017-Jun-20 11:58N 59°54' E 010°45'0 0.0
2017-Jun-20 11:25N 59°54' E 010°45'0 0.0
2017-Jun-20 10:58N 59°54' E 010°45'0 0.0
2017-Jun-20 10:28N 59°54' E 010°45'0 0.0
2017-Jun-20 09:58N 59°54' E 010°45'0 0.0
2017-Jun-20 09:28N 59°54' E 010°45'0 0.0
2017-Jun-20 08:58N 59°54' E 010°45'0 0.0
2017-Jun-20 08:28N 59°54' E 010°45'0 0.0
2017-Jun-20 08:00N 59°54' E 010°45'2 4.5
2017-Jun-20 07:30N 59°53' E 010°40'815.9
2017-Jun-20 07:01N 59°46' E 010°34'713.7
2017-Jun-20 06:30N 59°39' E 010°37'713.2
2017-Jun-20 06:01N 59°33' E 010°37'816.0
2017-Jun-20 05:30N 59°25' E 010°34'816.0
2017-Jun-20 05:00N 59°17' E 010°37'816.1
2017-Jun-20 04:31N 59°09' E 010°39'816.1
2017-Jun-20 04:01N 59°01' E 010°41'816.5
2017-Jun-20 03:31N 58°53' E 010°43'816.2
2017-Jun-20 03:01N 58°45' E 010°45'816.0
2017-Jun-20 02:30N 58°37' E 010°48'816.6
2017-Jun-20 02:00N 58°29' E 010°53'816.5
2017-Jun-20 01:30N 58°22' E 010°59'816.3
2017-Jun-20 01:00N 58°14' E 011°05'915.7
2017-Jun-20 00:27N 58°06' E 011°10'715.8
2017-Jun-20 00:00N 57°59' E 011°15'815.6
2017-Jun-19 23:31N 57°52' E 011°20'815.5
2017-Jun-19 23:01N 57°45' E 011°25'816.5
2017-Jun-19 22:30N 57°37' E 011°28'815.6
2017-Jun-19 22:01N 57°29' E 011°34'815.6
2017-Jun-19 21:30N 57°23' E 011°41'816.2
2017-Jun-19 21:01N 57°16' E 011°50'1016.5
2017-Jun-19 20:23N 57°06' E 011°57'916.1
2017-Jun-19 19:50N 56°58' E 012°02'616.2
2017-Jun-19 19:29N 56°53' E 012°06'1116.4
2017-Jun-19 18:50N 56°42' E 012°10'516.1
2017-Jun-19 18:30N 56°37' E 012°12'915.8
2017-Jun-19 17:55N 56°28' E 012°17'716.0
2017-Jun-19 17:31N 56°22' E 012°21'816.2
2017-Jun-19 17:01N 56°15' E 012°27'816.0
2017-Jun-19 16:31N 56°07' E 012°33'816.3
2017-Jun-19 16:00N 56°00' E 012°41'815.9
2017-Jun-19 15:30N 55°53' E 012°44'815.3
2017-Jun-19 15:00N 55°45' E 012°41'4 4.2
2017-Jun-19 13:58N 55°42' E 012°36'0 0.0
2017-Jun-19 13:28N 55°42' E 012°36'0 0.0
2017-Jun-19 12:58N 55°42' E 012°36'0 0.0
2017-Jun-19 12:28N 55°42' E 012°36'0 0.0
2017-Jun-19 11:58N 55°42' E 012°36'0 0.0
2017-Jun-19 11:28N 55°42' E 012°36'0 0.0
2017-Jun-19 10:58N 55°42' E 012°36'0 0.0
2017-Jun-19 10:22N 55°42' E 012°36'0 0.0
2017-Jun-19 09:58N 55°42' E 012°36'0 0.0
2017-Jun-19 09:28N 55°42' E 012°36'0 0.0
2017-Jun-19 08:58N 55°42' E 012°36'0 0.0
2017-Jun-19 08:28N 55°42' E 012°36'0 0.0
2017-Jun-19 08:00N 55°42' E 012°36'1 1.7
2017-Jun-19 07:30N 55°43' E 012°37'713.9
2017-Jun-19 07:00N 55°49' E 012°42'815.5
2017-Jun-19 06:30N 55°57' E 012°40'815.2
2017-Jun-19 06:00N 56°04' E 012°37'815.6
2017-Jun-19 05:30N 56°10' E 012°29'815.8
2017-Jun-19 05:00N 56°18' E 012°24'815.8
2017-Jun-19 04:30N 56°25' E 012°19'816.2
2017-Jun-19 04:00N 56°33' E 012°15'816.4
2017-Jun-19 03:30N 56°41' E 012°10'916.6
2017-Jun-19 02:58N 56°49' E 012°05'816.4
2017-Jun-19 02:30N 56°57' E 012°02'1817.0
2017-Jun-19 01:28N 57°13' E 011°52'817.1
2017-Jun-19 01:00N 57°20' E 011°45'917.2
2017-Jun-19 00:30N 57°27' E 011°36'817.0
2017-Jun-19 00:00N 57°33' E 011°24'917.4
2017-Jun-18 23:30N 57°39' E 011°14'917.4
2017-Jun-18 23:00N 57°48' E 011°09'816.7
2017-Jun-18 22:30N 57°56' E 011°04'816.0
2017-Jun-18 22:00N 58°03' E 010°57'816.1
2017-Jun-18 21:30N 58°10' E 010°52'816.2
2017-Jun-18 21:00N 58°18' E 010°46'816.1
2017-Jun-18 20:30N 58°26' E 010°41'815.8
2017-Jun-18 20:00N 58°33' E 010°37'815.6
2017-Jun-18 19:30N 58°41' E 010°36'815.8
2017-Jun-18 19:00N 58°49' E 010°35'815.5
2017-Jun-18 18:30N 58°57' E 010°35'815.5
2017-Jun-18 18:00N 59°04' E 010°37'815.6
2017-Jun-18 17:30N 59°12' E 010°38'816.3
2017-Jun-18 17:00N 59°20' E 010°35'816.3
2017-Jun-18 16:30N 59°28' E 010°34'714.7
2017-Jun-18 16:01N 59°35' E 010°38'714.2
2017-Jun-18 15:30N 59°42' E 010°35'714.7
2017-Jun-18 15:00N 59°50' E 010°36'6 6.3
2017-Jun-18 13:59N 59°54' E 010°45'0 0.0
2017-Jun-18 13:29N 59°54' E 010°45'0 0.0
2017-Jun-18 12:59N 59°54' E 010°45'0 0.0
2017-Jun-18 12:29N 59°54' E 010°45'0 0.0
2017-Jun-18 11:59N 59°54' E 010°45'0 0.0
2017-Jun-18 11:29N 59°54' E 010°45'0 0.0
2017-Jun-18 10:59N 59°54' E 010°45'0 0.0
2017-Jun-18 10:29N 59°54' E 010°45'0 0.0
2017-Jun-18 09:59N 59°54' E 010°45'0 0.0
2017-Jun-18 09:29N 59°54' E 010°45'0 0.0
2017-Jun-18 08:59N 59°54' E 010°45'0 0.0
2017-Jun-18 08:29N 59°54' E 010°45'0 0.0
2017-Jun-18 07:58N 59°54' E 010°45'1 2.6
2017-Jun-18 07:30N 59°54' E 010°42'815.3
2017-Jun-18 07:00N 59°47' E 010°35'713.7
2017-Jun-18 06:31N 59°41' E 010°37'714.3
2017-Jun-18 06:00N 59°34' E 010°37'816.2
2017-Jun-18 05:30N 59°26' E 010°34'816.6
2017-Jun-18 05:00N 59°18' E 010°37'816.7
2017-Jun-18 04:30N 59°09' E 010°39'816.6
2017-Jun-18 04:00N 59°01' E 010°37'816.7
2017-Jun-18 03:30N 58°53' E 010°35'917.1
2017-Jun-18 03:00N 58°44' E 010°36'917.5
2017-Jun-18 02:30N 58°35' E 010°37'917.1
2017-Jun-18 02:00N 58°27' E 010°42'817.0
2017-Jun-18 01:30N 58°19' E 010°48'816.7
2017-Jun-18 01:00N 58°11' E 010°52'816.9
2017-Jun-18 00:30N 58°03' E 010°56'916.6
2017-Jun-17 23:59N 57°55' E 011°02'715.8
2017-Jun-17 23:30N 57°48' E 011°08'815.4
2017-Jun-17 23:00N 57°41' E 011°13'816.0
2017-Jun-17 22:30N 57°34' E 011°20'816.1
2017-Jun-17 22:00N 57°27' E 011°27'816.3
2017-Jun-17 21:30N 57°19' E 011°33'916.1
2017-Jun-17 20:58N 57°11' E 011°38'916.7
2017-Jun-17 20:27N 57°03' E 011°44'916.3
2017-Jun-17 19:53N 56°55' E 011°52'616.0
2017-Jun-17 19:29N 56°49' E 011°58'816.3
2017-Jun-17 19:01N 56°42' E 012°03'816.0
2017-Jun-17 18:30N 56°35' E 012°09'816.1
2017-Jun-17 18:00N 56°28' E 012°15'816.3
2017-Jun-17 17:30N 56°20' E 012°21'816.4
2017-Jun-17 17:00N 56°13' E 012°28'816.3
2017-Jun-17 16:30N 56°06' E 012°35'714.6
2017-Jun-17 16:00N 55°59' E 012°41'815.6
2017-Jun-17 15:30N 55°52' E 012°45'714.5
2017-Jun-17 15:00N 55°45' E 012°41'4 3.8
2017-Jun-17 14:00N 55°42' E 012°36'0 0.0
2017-Jun-17 13:30N 55°42' E 012°36'0 0.0
2017-Jun-17 13:00N 55°42' E 012°36'0 0.0
2017-Jun-17 12:30N 55°42' E 012°36'0 0.0
2017-Jun-17 12:00N 55°42' E 012°36'0 0.0
2017-Jun-17 11:30N 55°42' E 012°36'0 0.0
2017-Jun-17 11:00N 55°42' E 012°36'0 0.0
2017-Jun-17 10:30N 55°42' E 012°36'0 0.0
2017-Jun-17 10:00N 55°42' E 012°36'0 0.0
2017-Jun-17 09:30N 55°42' E 012°36'0 0.0
2017-Jun-17 09:00N 55°42' E 012°36'0 0.0
2017-Jun-17 08:30N 55°42' E 012°36'0 0.0
2017-Jun-17 08:00N 55°42' E 012°36'1 1.3
2017-Jun-17 07:30N 55°43' E 012°37'613.0
2017-Jun-17 07:00N 55°48' E 012°42'815.8
2017-Jun-17 06:30N 55°56' E 012°39'815.9
2017-Jun-17 06:00N 56°04' E 012°38'816.6
2017-Jun-17 05:30N 56°10' E 012°28'816.6
2017-Jun-17 05:00N 56°18' E 012°23'916.6
2017-Jun-17 04:28N 56°27' E 012°18'4917.5
2017-Jun-17 01:39N 57°14' E 011°51'318.2
2017-Jun-17 01:30N 57°16' E 011°49'917.5
2017-Jun-17 01:01N 57°24' E 011°42'816.7
2017-Jun-17 00:30N 57°31' E 011°35'816.5
2017-Jun-17 00:00N 57°39' E 011°29'816.4
2017-Jun-16 23:30N 57°47' E 011°23'816.6
2017-Jun-16 23:00N 57°54' E 011°17'816.6
2017-Jun-16 22:30N 58°02' E 011°11'815.6
2017-Jun-16 22:00N 58°09' E 011°06'815.7
2017-Jun-16 21:30N 58°17' E 011°02'815.2
2017-Jun-16 21:00N 58°24' E 010°57'815.0
2017-Jun-16 20:30N 58°31' E 010°51'714.9
2017-Jun-16 20:00N 58°38' E 010°46'715.0
2017-Jun-16 19:30N 58°45' E 010°45'815.5
2017-Jun-16 19:00N 58°53' E 010°43'816.0
2017-Jun-16 18:30N 59°01' E 010°41'816.1
2017-Jun-16 18:00N 59°09' E 010°39'816.0
2017-Jun-16 17:30N 59°17' E 010°36'816.1
2017-Jun-16 17:00N 59°25' E 010°34'815.9
2017-Jun-16 16:30N 59°32' E 010°36'713.2
2017-Jun-16 16:00N 59°39' E 010°37'714.2
2017-Jun-16 15:31N 59°46' E 010°33'815.8
2017-Jun-16 15:00N 59°53' E 010°40'3 5.0
2017-Jun-16 14:30N 59°54' E 010°45'0 0.0
2017-Jun-16 13:30N 59°54' E 010°45'0 0.0
2017-Jun-16 13:00N 59°54' E 010°45'0 0.0
2017-Jun-16 12:30N 59°54' E 010°45'0 0.0
2017-Jun-16 12:00N 59°54' E 010°45'0 0.0
2017-Jun-16 11:30N 59°54' E 010°45'0 0.0
2017-Jun-16 11:00N 59°54' E 010°45'0 0.0
2017-Jun-16 10:30N 59°54' E 010°45'0 0.0
2017-Jun-16 10:00N 59°54' E 010°45'0 0.0
2017-Jun-16 09:30N 59°54' E 010°45'0 0.0
2017-Jun-16 09:00N 59°54' E 010°45'0 0.0
2017-Jun-16 08:30N 59°54' E 010°45'0 0.0
2017-Jun-16 08:00N 59°54' E 010°45'1 1.2
2017-Jun-16 07:30N 59°54' E 010°44'714.7
2017-Jun-16 07:00N 59°48' E 010°35'714.5
2017-Jun-16 06:30N 59°41' E 010°36'713.8
2017-Jun-16 06:00N 59°34' E 010°38'815.6
2017-Jun-16 05:30N 59°27' E 010°34'815.7
2017-Jun-16 05:00N 59°19' E 010°36'816.0
2017-Jun-16 04:30N 59°11' E 010°39'815.8
2017-Jun-16 04:00N 59°03' E 010°41'816.0
2017-Jun-16 03:30N 58°55' E 010°43'816.2
2017-Jun-16 03:00N 58°47' E 010°46'816.8
2017-Jun-16 02:30N 58°39' E 010°49'917.2
2017-Jun-16 02:00N 58°31' E 010°54'917.3
2017-Jun-16 01:30N 58°23' E 011°00'917.3
2017-Jun-16 01:00N 58°14' E 011°05'917.1
2017-Jun-16 00:30N 58°06' E 011°10'816.6
2017-Jun-16 00:00N 57°59' E 011°15'815.6
2017-Jun-15 23:30N 57°51' E 011°21'816.1
2017-Jun-15 23:01N 57°44' E 011°26'816.7
2017-Jun-15 22:30N 57°36' E 011°32'816.6
2017-Jun-15 22:01N 57°29' E 011°39'816.0
2017-Jun-15 21:31N 57°21' E 011°45'815.3
2017-Jun-15 21:00N 57°14' E 011°51'2115.9
2017-Jun-15 19:42N 56°55' E 012°05'1515.9
2017-Jun-15 18:44N 56°41' E 012°14'415.9
2017-Jun-15 18:30N 56°37' E 012°16'815.8
2017-Jun-15 18:00N 56°29' E 012°19'815.9
2017-Jun-15 17:30N 56°22' E 012°23'816.0
2017-Jun-15 17:00N 56°14' E 012°27'815.8
2017-Jun-15 16:30N 56°07' E 012°33'815.7
2017-Jun-15 16:00N 56°01' E 012°41'815.6
2017-Jun-15 15:30N 55°53' E 012°45'815.4
2017-Jun-15 15:00N 55°46' E 012°41'4 8.8
2017-Jun-15 14:30N 55°42' E 012°36'0 0.0
2017-Jun-15 13:30N 55°42' E 012°36'0 0.0
2017-Jun-15 13:00N 55°42' E 012°36'0 0.0
2017-Jun-15 12:30N 55°42' E 012°36'0 0.0
2017-Jun-15 12:00N 55°42' E 012°36'0 0.0
2017-Jun-15 11:30N 55°42' E 012°36'0 0.0
2017-Jun-15 11:00N 55°42' E 012°36'0 0.0
2017-Jun-15 10:30N 55°42' E 012°36'0 0.0
2017-Jun-15 10:00N 55°42' E 012°36'0 0.0
2017-Jun-15 09:30N 55°42' E 012°36'0 0.0
2017-Jun-15 09:00N 55°42' E 012°36'0 0.0
2017-Jun-15 08:30N 55°42' E 012°36'0 0.0
2017-Jun-15 08:00N 55°42' E 012°36'0 0.8
2017-Jun-15 07:31N 55°42' E 012°36'611.5
2017-Jun-15 07:01N 55°47' E 012°42'815.1
2017-Jun-15 06:31N 55°55' E 012°39'816.0
2017-Jun-15 06:01N 56°03' E 012°39'816.1
2017-Jun-15 05:31N 56°08' E 012°29'816.1
2017-Jun-15 05:01N 56°16' E 012°25'1016.2
2017-Jun-15 04:25N 56°25' E 012°19'816.2
2017-Jun-15 03:54N 56°33' E 012°15'4217.0
2017-Jun-15 01:25N 57°14' E 011°52'718.1
2017-Jun-15 01:00N 57°20' E 011°45'917.3
2017-Jun-15 00:30N 57°27' E 011°37'917.2
2017-Jun-15 00:01N 57°35' E 011°31'917.6
2017-Jun-14 23:31N 57°43' E 011°25'918.2
2017-Jun-14 23:01N 57°52' E 011°19'917.6
2017-Jun-14 22:30N 58°00' E 011°13'816.5
2017-Jun-14 22:01N 58°08' E 011°08'816.2
2017-Jun-14 21:31N 58°16' E 011°03'815.7
2017-Jun-14 21:01N 58°23' E 010°58'815.7
2017-Jun-14 20:31N 58°31' E 010°54'815.2
2017-Jun-14 20:01N 58°38' E 010°49'714.9
2017-Jun-14 19:31N 58°45' E 010°44'815.7
2017-Jun-14 19:01N 58°53' E 010°43'816.1
2017-Jun-14 18:31N 59°01' E 010°41'816.5
2017-Jun-14 18:01N 59°09' E 010°39'816.7
2017-Jun-14 17:31N 59°17' E 010°36'816.5
2017-Jun-14 17:01N 59°25' E 010°33'815.9
2017-Jun-14 16:31N 59°33' E 010°37'713.6
2017-Jun-14 16:00N 59°40' E 010°37'612.7
2017-Jun-14 15:30N 59°46' E 010°33'815.6
2017-Jun-14 15:00N 59°53' E 010°39'3 6.0
2017-Jun-14 14:30N 59°54' E 010°45'0 0.0
2017-Jun-14 13:29N 59°54' E 010°45'0 0.0
2017-Jun-14 12:59N 59°54' E 010°45'0 0.0
2017-Jun-14 12:29N 59°54' E 010°45'0 0.0
2017-Jun-14 11:59N 59°54' E 010°45'0 0.0
2017-Jun-14 11:29N 59°54' E 010°45'0 0.0
2017-Jun-14 10:59N 59°54' E 010°45'0 0.0
2017-Jun-14 10:29N 59°54' E 010°45'0 0.0
2017-Jun-14 09:59N 59°54' E 010°45'0 0.0
2017-Jun-14 09:29N 59°54' E 010°45'0 0.0
2017-Jun-14 08:59N 59°54' E 010°45'0 0.0
2017-Jun-14 08:23N 59°54' E 010°45'0 0.0
2017-Jun-14 07:59N 59°54' E 010°45'0 0.5
2017-Jun-14 07:30N 59°54' E 010°45'613.1
2017-Jun-14 07:00N 59°49' E 010°35'815.1
2017-Jun-14 06:30N 59°42' E 010°36'713.8
2017-Jun-14 06:00N 59°35' E 010°39'815.6
2017-Jun-14 05:30N 59°28' E 010°34'816.1
2017-Jun-14 05:00N 59°20' E 010°36'816.2
2017-Jun-14 04:30N 59°12' E 010°39'816.1
2017-Jun-14 04:00N 59°04' E 010°41'816.7
2017-Jun-14 03:30N 58°55' E 010°43'816.7
2017-Jun-14 03:00N 58°47' E 010°44'917.4
2017-Jun-14 02:30N 58°39' E 010°47'918.7
2017-Jun-14 02:00N 58°30' E 010°53'1019.8
2017-Jun-14 01:30N 58°20' E 010°58'1019.1
2017-Jun-14 01:00N 58°11' E 011°03'918.9
2017-Jun-14 00:30N 58°02' E 011°09'918.1
2017-Jun-14 00:00N 57°53' E 011°14'816.4
2017-Jun-13 23:30N 57°45' E 011°18'815.1
2017-Jun-13 23:00N 57°38' E 011°22'815.3
2017-Jun-13 22:31N 57°31' E 011°27'815.7
2017-Jun-13 22:00N 57°23' E 011°31'815.8
2017-Jun-13 21:30N 57°16' E 011°36'915.6
2017-Jun-13 20:56N 57°08' E 011°41'815.9
2017-Jun-13 20:25N 56°60' E 011°47'815.4
2017-Jun-13 19:54N 56°53' E 011°54'3915.6
2017-Jun-13 17:24N 56°17' E 012°23'615.6
2017-Jun-13 17:00N 56°12' E 012°28'  

Dump ship's entire track history